sensor_id;sensor_type;location;lat;lon;timestamp;temperature;humidity
53310;DHT22;39197;53.200;5.792;2023-07-20T00:00:02;14.60;99.90
53310;DHT22;39197;53.200;5.792;2023-07-20T00:02:29;14.50;99.90
53310;DHT22;39197;53.200;5.792;2023-07-20T00:04:55;14.50;99.90
53310;DHT22;39197;53.200;5.792;2023-07-20T00:07:20;14.50;99.90
53310;DHT22;39197;53.200;5.792;2023-07-20T00:09:46;14.40;99.90
53310;DHT22;39197;53.200;5.792;2023-07-20T00:12:11;14.40;99.90
53310;DHT22;39197;53.200;5.792;2023-07-20T00:14:37;14.30;99.90
53310;DHT22;39197;53.200;5.792;2023-07-20T00:17:03;14.30;99.90
53310;DHT22;39197;53.200;5.792;2023-07-20T00:19:28;14.30;99.90
53310;DHT22;39197;53.200;5.792;2023-07-20T00:21:55;14.20;99.90
53310;DHT22;39197;53.200;5.792;2023-07-20T00:24:21;14.20;99.90
53310;DHT22;39197;53.200;5.792;2023-07-20T00:26:47;14.10;99.90
53310;DHT22;39197;53.200;5.792;2023-07-20T00:29:12;14.10;99.90
53310;DHT22;39197;53.200;5.792;2023-07-20T00:31:38;14.10;99.90
53310;DHT22;39197;53.200;5.792;2023-07-20T00:34:04;14.10;99.90
53310;DHT22;39197;53.200;5.792;2023-07-20T00:36:30;14.00;99.90
53310;DHT22;39197;53.200;5.792;2023-07-20T00:38:55;14.00;99.90
53310;DHT22;39197;53.200;5.792;2023-07-20T00:41:22;13.90;99.90
53310;DHT22;39197;53.200;5.792;2023-07-20T00:43:47;13.90;99.90
53310;DHT22;39197;53.200;5.792;2023-07-20T00:46:13;14.00;99.90
53310;DHT22;39197;53.200;5.792;2023-07-20T00:48:40;13.80;99.90
53310;DHT22;39197;53.200;5.792;2023-07-20T00:51:07;13.90;99.90
53310;DHT22;39197;53.200;5.792;2023-07-20T00:53:33;13.80;99.90
53310;DHT22;39197;53.200;5.792;2023-07-20T00:55:58;13.80;99.90
53310;DHT22;39197;53.200;5.792;2023-07-20T00:58:24;13.80;99.90
53310;DHT22;39197;53.200;5.792;2023-07-20T01:00:51;13.70;99.90
53310;DHT22;39197;53.200;5.792;2023-07-20T01:03:16;13.80;99.90
53310;DHT22;39197;53.200;5.792;2023-07-20T01:08:55;13.80;99.90
53310;DHT22;39197;53.200;5.792;2023-07-20T01:13:47;13.70;99.90
53310;DHT22;39197;53.200;5.792;2023-07-20T01:16:12;13.70;99.90
53310;DHT22;39197;53.200;5.792;2023-07-20T01:18:38;13.60;99.90
53310;DHT22;39197;53.200;5.792;2023-07-20T01:21:08;13.60;99.90
53310;DHT22;39197;53.200;5.792;2023-07-20T01:23:57;13.60;99.90
53310;DHT22;39197;53.200;5.792;2023-07-20T01:31:42;13.60;99.90
53310;DHT22;39197;53.200;5.792;2023-07-20T01:34:11;13.60;99.90
53310;DHT22;39197;53.200;5.792;2023-07-20T01:36:38;13.60;99.90
53310;DHT22;39197;53.200;5.792;2023-07-20T01:39:06;13.60;99.90
53310;DHT22;39197;53.200;5.792;2023-07-20T01:41:32;13.50;99.90
53310;DHT22;39197;53.200;5.792;2023-07-20T01:43:58;13.50;99.90
53310;DHT22;39197;53.200;5.792;2023-07-20T01:46:27;13.50;99.90
53310;DHT22;39197;53.200;5.792;2023-07-20T01:48:53;13.50;99.90
53310;DHT22;39197;53.200;5.792;2023-07-20T01:51:19;13.50;99.90
53310;DHT22;39197;53.200;5.792;2023-07-20T01:53:45;13.50;99.90
53310;DHT22;39197;53.200;5.792;2023-07-20T01:56:10;13.50;99.90
53310;DHT22;39197;53.200;5.792;2023-07-20T01:58:38;13.50;99.90
53310;DHT22;39197;53.200;5.792;2023-07-20T02:01:03;13.50;99.90
53310;DHT22;39197;53.200;5.792;2023-07-20T02:03:29;13.50;99.90
53310;DHT22;39197;53.200;5.792;2023-07-20T02:05:55;13.50;99.90
53310;DHT22;39197;53.200;5.792;2023-07-20T02:08:22;13.40;99.90
53310;DHT22;39197;53.200;5.792;2023-07-20T02:10:48;13.40;99.90
53310;DHT22;39197;53.200;5.792;2023-07-20T02:13:14;13.40;99.90
53310;DHT22;39197;53.200;5.792;2023-07-20T02:15:41;13.40;99.90
53310;DHT22;39197;53.200;5.792;2023-07-20T02:18:07;13.40;99.90
53310;DHT22;39197;53.200;5.792;2023-07-20T02:20:32;13.50;99.90
53310;DHT22;39197;53.200;5.792;2023-07-20T02:22:58;13.40;99.90
53310;DHT22;39197;53.200;5.792;2023-07-20T02:25:24;13.40;99.90
53310;DHT22;39197;53.200;5.792;2023-07-20T02:27:49;13.30;99.90
53310;DHT22;39197;53.200;5.792;2023-07-20T02:30:15;13.30;99.90
53310;DHT22;39197;53.200;5.792;2023-07-20T02:32:41;13.30;99.90
53310;DHT22;39197;53.200;5.792;2023-07-20T02:35:11;13.30;99.90
53310;DHT22;39197;53.200;5.792;2023-07-20T02:37:37;13.30;99.90
53310;DHT22;39197;53.200;5.792;2023-07-20T02:40:03;13.30;99.90
53310;DHT22;39197;53.200;5.792;2023-07-20T02:42:30;13.20;99.90
53310;DHT22;39197;53.200;5.792;2023-07-20T02:44:55;13.20;99.90
53310;DHT22;39197;53.200;5.792;2023-07-20T02:47:21;13.20;99.90
53310;DHT22;39197;53.200;5.792;2023-07-20T02:49:47;13.20;99.90
53310;DHT22;39197;53.200;5.792;2023-07-20T02:52:12;13.20;99.90
53310;DHT22;39197;53.200;5.792;2023-07-20T02:54:38;13.20;99.90
53310;DHT22;39197;53.200;5.792;2023-07-20T02:57:04;13.10;99.90
53310;DHT22;39197;53.200;5.792;2023-07-20T02:59:29;13.10;99.90
53310;DHT22;39197;53.200;5.792;2023-07-20T03:01:55;13.10;99.90
53310;DHT22;39197;53.200;5.792;2023-07-20T03:04:21;13.00;99.90
53310;DHT22;39197;53.200;5.792;2023-07-20T03:06:47;13.00;99.90
53310;DHT22;39197;53.200;5.792;2023-07-20T03:09:12;13.00;99.90
53310;DHT22;39197;53.200;5.792;2023-07-20T03:11:38;13.00;99.90
53310;DHT22;39197;53.200;5.792;2023-07-20T03:14:04;12.90;99.90
53310;DHT22;39197;53.200;5.792;2023-07-20T03:16:29;12.90;99.90
53310;DHT22;39197;53.200;5.792;2023-07-20T03:18:58;13.00;99.90
53310;DHT22;39197;53.200;5.792;2023-07-20T03:21:24;12.90;99.90
53310;DHT22;39197;53.200;5.792;2023-07-20T03:23:50;13.00;99.90
53310;DHT22;39197;53.200;5.792;2023-07-20T03:26:16;13.00;99.90
53310;DHT22;39197;53.200;5.792;2023-07-20T03:28:41;12.90;99.90
53310;DHT22;39197;53.200;5.792;2023-07-20T03:31:07;13.00;99.90
53310;DHT22;39197;53.200;5.792;2023-07-20T03:33:33;13.00;99.90
53310;DHT22;39197;53.200;5.792;2023-07-20T03:35:59;13.00;99.90
53310;DHT22;39197;53.200;5.792;2023-07-20T03:38:26;13.00;99.90
53310;DHT22;39197;53.200;5.792;2023-07-20T03:40:53;13.00;99.90
53310;DHT22;39197;53.200;5.792;2023-07-20T03:43:19;13.00;99.90
53310;DHT22;39197;53.200;5.792;2023-07-20T03:45:45;13.00;99.90
53310;DHT22;39197;53.200;5.792;2023-07-20T03:48:11;13.00;99.90
53310;DHT22;39197;53.200;5.792;2023-07-20T03:50:37;13.00;99.90
53310;DHT22;39197;53.200;5.792;2023-07-20T03:53:03;13.10;99.90
53310;DHT22;39197;53.200;5.792;2023-07-20T03:55:29;13.10;99.90
53310;DHT22;39197;53.200;5.792;2023-07-20T03:57:54;13.10;99.90
53310;DHT22;39197;53.200;5.792;2023-07-20T04:00:20;13.10;99.90
53310;DHT22;39197;53.200;5.792;2023-07-20T04:02:46;13.10;99.90
53310;DHT22;39197;53.200;5.792;2023-07-20T04:05:12;13.10;99.90
53310;DHT22;39197;53.200;5.792;2023-07-20T04:07:37;13.00;99.90
53310;DHT22;39197;53.200;5.792;2023-07-20T04:10:03;13.00;99.90
53310;DHT22;39197;53.200;5.792;2023-07-20T04:12:29;13.10;99.90
53310;DHT22;39197;53.200;5.792;2023-07-20T04:14:54;13.10;99.90
53310;DHT22;39197;53.200;5.792;2023-07-20T04:17:20;13.10;99.90
53310;DHT22;39197;53.200;5.792;2023-07-20T04:19:46;13.10;99.90
53310;DHT22;39197;53.200;5.792;2023-07-20T04:22:11;13.10;99.90
53310;DHT22;39197;53.200;5.792;2023-07-20T04:24:37;13.10;99.90
53310;DHT22;39197;53.200;5.792;2023-07-20T04:27:03;13.10;99.90
53310;DHT22;39197;53.200;5.792;2023-07-20T04:29:28;13.10;99.90
53310;DHT22;39197;53.200;5.792;2023-07-20T04:31:54;13.10;99.90
53310;DHT22;39197;53.200;5.792;2023-07-20T04:34:19;13.20;99.90
53310;DHT22;39197;53.200;5.792;2023-07-20T04:36:45;13.20;99.90
53310;DHT22;39197;53.200;5.792;2023-07-20T04:39:12;13.20;99.90
53310;DHT22;39197;53.200;5.792;2023-07-20T04:41:37;13.20;99.90
53310;DHT22;39197;53.200;5.792;2023-07-20T04:44:03;13.20;99.90
53310;DHT22;39197;53.200;5.792;2023-07-20T04:46:29;13.30;99.90
53310;DHT22;39197;53.200;5.792;2023-07-20T04:48:54;13.30;99.90
53310;DHT22;39197;53.200;5.792;2023-07-20T04:51:20;13.30;99.90
53310;DHT22;39197;53.200;5.792;2023-07-20T04:53:49;13.40;99.90
53310;DHT22;39197;53.200;5.792;2023-07-20T04:56:15;13.40;99.90
53310;DHT22;39197;53.200;5.792;2023-07-20T04:58:40;13.50;99.90
53310;DHT22;39197;53.200;5.792;2023-07-20T05:01:07;13.50;99.90
53310;DHT22;39197;53.200;5.792;2023-07-20T05:03:33;13.50;99.90
53310;DHT22;39197;53.200;5.792;2023-07-20T05:05:58;13.50;99.90
53310;DHT22;39197;53.200;5.792;2023-07-20T05:08:24;13.50;99.90
53310;DHT22;39197;53.200;5.792;2023-07-20T05:10:50;13.60;99.90
53310;DHT22;39197;53.200;5.792;2023-07-20T05:13:16;13.60;99.90
53310;DHT22;39197;53.200;5.792;2023-07-20T05:15:42;13.70;99.90
53310;DHT22;39197;53.200;5.792;2023-07-20T05:18:08;13.70;99.90
53310;DHT22;39197;53.200;5.792;2023-07-20T05:20:37;13.80;99.90
53310;DHT22;39197;53.200;5.792;2023-07-20T05:23:03;13.90;99.90
53310;DHT22;39197;53.200;5.792;2023-07-20T05:25:28;14.00;99.90
53310;DHT22;39197;53.200;5.792;2023-07-20T05:27:54;14.10;99.90
53310;DHT22;39197;53.200;5.792;2023-07-20T05:30:21;14.20;99.90
53310;DHT22;39197;53.200;5.792;2023-07-20T05:32:46;14.40;99.90
53310;DHT22;39197;53.200;5.792;2023-07-20T05:35:17;14.40;99.90
53310;DHT22;39197;53.200;5.792;2023-07-20T05:37:43;14.50;99.90
53310;DHT22;39197;53.200;5.792;2023-07-20T05:40:09;14.60;99.90
53310;DHT22;39197;53.200;5.792;2023-07-20T05:42:37;14.70;99.90
53310;DHT22;39197;53.200;5.792;2023-07-20T05:45:04;14.80;99.90
53310;DHT22;39197;53.200;5.792;2023-07-20T05:47:29;14.90;99.90
53310;DHT22;39197;53.200;5.792;2023-07-20T05:49:55;15.00;99.90
53310;DHT22;39197;53.200;5.792;2023-07-20T05:52:20;15.10;99.90
53310;DHT22;39197;53.200;5.792;2023-07-20T05:54:46;15.20;99.90
53310;DHT22;39197;53.200;5.792;2023-07-20T05:57:12;15.30;99.90
53310;DHT22;39197;53.200;5.792;2023-07-20T05:59:37;15.40;99.90
53310;DHT22;39197;53.200;5.792;2023-07-20T06:02:04;15.50;99.90
53310;DHT22;39197;53.200;5.792;2023-07-20T06:04:29;15.50;99.90
53310;DHT22;39197;53.200;5.792;2023-07-20T06:06:55;15.70;99.90
53310;DHT22;39197;53.200;5.792;2023-07-20T06:09:21;15.70;99.90
53310;DHT22;39197;53.200;5.792;2023-07-20T06:11:46;15.70;99.90
53310;DHT22;39197;53.200;5.792;2023-07-20T06:14:12;15.90;99.90
53310;DHT22;39197;53.200;5.792;2023-07-20T06:16:38;15.90;99.90
53310;DHT22;39197;53.200;5.792;2023-07-20T06:19:04;16.00;99.90
53310;DHT22;39197;53.200;5.792;2023-07-20T06:21:29;16.00;99.90
53310;DHT22;39197;53.200;5.792;2023-07-20T06:23:55;16.10;99.90
53310;DHT22;39197;53.200;5.792;2023-07-20T06:26:21;16.20;99.90
53310;DHT22;39197;53.200;5.792;2023-07-20T06:28:46;16.30;99.90
53310;DHT22;39197;53.200;5.792;2023-07-20T06:31:12;16.30;99.90
53310;DHT22;39197;53.200;5.792;2023-07-20T06:33:38;16.30;99.90
53310;DHT22;39197;53.200;5.792;2023-07-20T06:36:04;16.40;99.90
53310;DHT22;39197;53.200;5.792;2023-07-20T06:38:29;16.50;99.90
53310;DHT22;39197;53.200;5.792;2023-07-20T06:40:55;16.60;99.90
53310;DHT22;39197;53.200;5.792;2023-07-20T06:43:21;16.60;99.90
53310;DHT22;39197;53.200;5.792;2023-07-20T06:45:51;16.70;99.90
53310;DHT22;39197;53.200;5.792;2023-07-20T06:48:19;16.70;99.90
53310;DHT22;39197;53.200;5.792;2023-07-20T06:50:44;16.80;99.90
53310;DHT22;39197;53.200;5.792;2023-07-20T06:53:10;16.90;99.90
53310;DHT22;39197;53.200;5.792;2023-07-20T06:55:36;17.00;99.90
53310;DHT22;39197;53.200;5.792;2023-07-20T06:58:01;17.10;99.90
53310;DHT22;39197;53.200;5.792;2023-07-20T07:00:27;17.20;99.90
53310;DHT22;39197;53.200;5.792;2023-07-20T07:02:52;17.30;99.90
53310;DHT22;39197;53.200;5.792;2023-07-20T07:05:18;17.40;99.90
53310;DHT22;39197;53.200;5.792;2023-07-20T07:07:44;17.40;99.90
53310;DHT22;39197;53.200;5.792;2023-07-20T07:10:10;17.50;99.90
53310;DHT22;39197;53.200;5.792;2023-07-20T07:12:35;17.60;99.90
53310;DHT22;39197;53.200;5.792;2023-07-20T07:15:02;17.70;99.90
53310;DHT22;39197;53.200;5.792;2023-07-20T07:17:28;18.00;99.90
53310;DHT22;39197;53.200;5.792;2023-07-20T07:19:54;18.40;99.90
53310;DHT22;39197;53.200;5.792;2023-07-20T07:22:20;19.10;99.90
53310;DHT22;39197;53.200;5.792;2023-07-20T07:24:47;20.00;99.90
53310;DHT22;39197;53.200;5.792;2023-07-20T07:27:13;20.20;99.90
53310;DHT22;39197;53.200;5.792;2023-07-20T07:29:41;20.60;99.90
53310;DHT22;39197;53.200;5.792;2023-07-20T07:32:07;21.10;99.90
53310;DHT22;39197;53.200;5.792;2023-07-20T07:34:33;21.50;99.90
53310;DHT22;39197;53.200;5.792;2023-07-20T07:37:00;21.80;99.90
53310;DHT22;39197;53.200;5.792;2023-07-20T07:39:25;22.00;99.90
53310;DHT22;39197;53.200;5.792;2023-07-20T07:41:51;22.30;99.90
53310;DHT22;39197;53.200;5.792;2023-07-20T07:44:18;22.40;99.90
53310;DHT22;39197;53.200;5.792;2023-07-20T07:46:43;22.30;99.90
53310;DHT22;39197;53.200;5.792;2023-07-20T07:49:09;22.30;99.90
53310;DHT22;39197;53.200;5.792;2023-07-20T07:51:34;22.30;99.90
53310;DHT22;39197;53.200;5.792;2023-07-20T07:54:00;21.90;99.90
53310;DHT22;39197;53.200;5.792;2023-07-20T07:56:26;21.00;99.90
53310;DHT22;39197;53.200;5.792;2023-07-20T07:58:52;20.30;99.90
53310;DHT22;39197;53.200;5.792;2023-07-20T08:01:18;20.10;99.90
53310;DHT22;39197;53.200;5.792;2023-07-20T08:03:46;20.50;99.90
53310;DHT22;39197;53.200;5.792;2023-07-20T08:06:13;21.00;99.90
53310;DHT22;39197;53.200;5.792;2023-07-20T08:08:39;21.60;99.90
53310;DHT22;39197;53.200;5.792;2023-07-20T08:11:05;22.10;99.90
53310;DHT22;39197;53.200;5.792;2023-07-20T08:13:31;22.30;99.90
53310;DHT22;39197;53.200;5.792;2023-07-20T08:15:58;22.40;99.90
53310;DHT22;39197;53.200;5.792;2023-07-20T08:18:23;21.90;99.90
53310;DHT22;39197;53.200;5.792;2023-07-20T08:20:49;22.30;99.90
53310;DHT22;39197;53.200;5.792;2023-07-20T08:23:15;22.30;99.90
53310;DHT22;39197;53.200;5.792;2023-07-20T08:25:41;22.50;99.90
53310;DHT22;39197;53.200;5.792;2023-07-20T08:28:14;22.80;99.90
53310;DHT22;39197;53.200;5.792;2023-07-20T08:30:48;22.50;99.90
53310;DHT22;39197;53.200;5.792;2023-07-20T08:33:15;21.30;99.90
53310;DHT22;39197;53.200;5.792;2023-07-20T08:35:41;20.70;99.90
53310;DHT22;39197;53.200;5.792;2023-07-20T08:38:07;20.30;99.90
53310;DHT22;39197;53.200;5.792;2023-07-20T08:40:35;20.10;99.90
53310;DHT22;39197;53.200;5.792;2023-07-20T08:43:04;20.10;99.90
53310;DHT22;39197;53.200;5.792;2023-07-20T08:45:33;20.20;99.90
53310;DHT22;39197;53.200;5.792;2023-07-20T08:48:00;21.30;99.90
53310;DHT22;39197;53.200;5.792;2023-07-20T08:50:30;21.90;99.90
53310;DHT22;39197;53.200;5.792;2023-07-20T08:52:58;22.60;99.90
53310;DHT22;39197;53.200;5.792;2023-07-20T08:55:27;22.50;99.90
53310;DHT22;39197;53.200;5.792;2023-07-20T08:57:55;22.50;99.90
53310;DHT22;39197;53.200;5.792;2023-07-20T09:00:22;21.90;99.90
53310;DHT22;39197;53.200;5.792;2023-07-20T09:02:51;21.50;99.90
53310;DHT22;39197;53.200;5.792;2023-07-20T09:05:17;21.00;99.90
53310;DHT22;39197;53.200;5.792;2023-07-20T09:07:43;20.60;99.90
53310;DHT22;39197;53.200;5.792;2023-07-20T09:10:10;20.40;99.90
53310;DHT22;39197;53.200;5.792;2023-07-20T09:12:38;20.60;99.90
53310;DHT22;39197;53.200;5.792;2023-07-20T09:15:05;21.20;99.90
53310;DHT22;39197;53.200;5.792;2023-07-20T09:17:31;21.90;99.90
53310;DHT22;39197;53.200;5.792;2023-07-20T09:19:56;22.80;99.90
53310;DHT22;39197;53.200;5.792;2023-07-20T09:22:22;23.20;99.90
53310;DHT22;39197;53.200;5.792;2023-07-20T09:24:55;23.30;99.90
53310;DHT22;39197;53.200;5.792;2023-07-20T09:27:21;23.60;99.90
53310;DHT22;39197;53.200;5.792;2023-07-20T09:29:48;23.40;99.90
53310;DHT22;39197;53.200;5.792;2023-07-20T09:32:21;22.40;99.90
53310;DHT22;39197;53.200;5.792;2023-07-20T09:34:47;22.20;99.90
53310;DHT22;39197;53.200;5.792;2023-07-20T09:37:22;21.80;99.90
53310;DHT22;39197;53.200;5.792;2023-07-20T09:39:51;21.80;99.90
53310;DHT22;39197;53.200;5.792;2023-07-20T09:42:18;21.90;99.90
53310;DHT22;39197;53.200;5.792;2023-07-20T09:44:44;22.30;99.90
53310;DHT22;39197;53.200;5.792;2023-07-20T09:47:10;23.00;99.90
53310;DHT22;39197;53.200;5.792;2023-07-20T09:49:40;23.00;99.90
53310;DHT22;39197;53.200;5.792;2023-07-20T09:52:10;23.60;99.90
53310;DHT22;39197;53.200;5.792;2023-07-20T09:54:40;24.40;99.90
53310;DHT22;39197;53.200;5.792;2023-07-20T09:57:11;24.40;99.90
53310;DHT22;39197;53.200;5.792;2023-07-20T09:59:38;23.90;99.90
53310;DHT22;39197;53.200;5.792;2023-07-20T10:02:11;23.70;99.90
53310;DHT22;39197;53.200;5.792;2023-07-20T10:04:39;23.90;99.90
53310;DHT22;39197;53.200;5.792;2023-07-20T10:07:10;24.00;99.90
53310;DHT22;39197;53.200;5.792;2023-07-20T10:09:39;24.10;99.90
53310;DHT22;39197;53.200;5.792;2023-07-20T10:12:07;24.20;99.90
53310;DHT22;39197;53.200;5.792;2023-07-20T10:14:36;24.30;99.90
53310;DHT22;39197;53.200;5.792;2023-07-20T10:17:05;24.60;99.90
53310;DHT22;39197;53.200;5.792;2023-07-20T10:19:43;24.60;99.60
53310;DHT22;39197;53.200;5.792;2023-07-20T10:22:27;24.80;99.90
53310;DHT22;39197;53.200;5.792;2023-07-20T10:24:55;24.80;99.90
53310;DHT22;39197;53.200;5.792;2023-07-20T10:27:24;25.20;99.90
53310;DHT22;39197;53.200;5.792;2023-07-20T10:29:51;25.60;99.70
53310;DHT22;39197;53.200;5.792;2023-07-20T10:32:17;25.20;99.60
53310;DHT22;39197;53.200;5.792;2023-07-20T10:34:53;24.60;99.90
53310;DHT22;39197;53.200;5.792;2023-07-20T10:37:53;23.80;99.90
53310;DHT22;39197;53.200;5.792;2023-07-20T10:40:32;23.60;99.90
53310;DHT22;39197;53.200;5.792;2023-07-20T10:43:02;22.80;99.90
53310;DHT22;39197;53.200;5.792;2023-07-20T10:45:36;23.30;99.90
53310;DHT22;39197;53.200;5.792;2023-07-20T10:48:05;23.20;99.90
53310;DHT22;39197;53.200;5.792;2023-07-20T10:50:33;23.00;99.90
53310;DHT22;39197;53.200;5.792;2023-07-20T10:53:19;22.30;99.90
53310;DHT22;39197;53.200;5.792;2023-07-20T10:55:45;22.40;99.90
53310;DHT22;39197;53.200;5.792;2023-07-20T10:58:15;23.10;99.90
53310;DHT22;39197;53.200;5.792;2023-07-20T11:01:02;23.10;99.90
53310;DHT22;39197;53.200;5.792;2023-07-20T11:03:29;22.40;99.90
53310;DHT22;39197;53.200;5.792;2023-07-20T11:05:57;22.50;99.90
53310;DHT22;39197;53.200;5.792;2023-07-20T11:08:41;22.40;99.90
53310;DHT22;39197;53.200;5.792;2023-07-20T11:11:26;22.40;99.90
53310;DHT22;39197;53.200;5.792;2023-07-20T11:13:56;22.60;99.90
53310;DHT22;39197;53.200;5.792;2023-07-20T11:19:04;23.30;99.90
53310;DHT22;39197;53.200;5.792;2023-07-20T11:21:38;24.10;99.90
53310;DHT22;39197;53.200;5.792;2023-07-20T11:24:05;24.80;99.90
53310;DHT22;39197;53.200;5.792;2023-07-20T11:26:40;25.20;99.90
53310;DHT22;39197;53.200;5.792;2023-07-20T11:29:05;25.30;98.90
53310;DHT22;39197;53.200;5.792;2023-07-20T11:31:35;25.50;97.80
53310;DHT22;39197;53.200;5.792;2023-07-20T11:34:01;25.30;97.30
53310;DHT22;39197;53.200;5.792;2023-07-20T11:36:26;25.60;96.80
53310;DHT22;39197;53.200;5.792;2023-07-20T11:38:53;25.30;96.00
53310;DHT22;39197;53.200;5.792;2023-07-20T11:41:19;25.20;96.20
53310;DHT22;39197;53.200;5.792;2023-07-20T11:43:45;24.90;95.60
53310;DHT22;39197;53.200;5.792;2023-07-20T11:46:11;24.90;95.90
53310;DHT22;39197;53.200;5.792;2023-07-20T11:48:37;25.10;95.80
53310;DHT22;39197;53.200;5.792;2023-07-20T11:51:02;25.50;94.90
53310;DHT22;39197;53.200;5.792;2023-07-20T11:53:28;24.70;94.70
53310;DHT22;39197;53.200;5.792;2023-07-20T11:55:54;24.90;95.30
53310;DHT22;39197;53.200;5.792;2023-07-20T11:58:21;25.00;95.00
53310;DHT22;39197;53.200;5.792;2023-07-20T12:00:47;25.20;94.50
53310;DHT22;39197;53.200;5.792;2023-07-20T12:03:13;25.20;94.50
53310;DHT22;39197;53.200;5.792;2023-07-20T12:05:39;25.40;93.40
53310;DHT22;39197;53.200;5.792;2023-07-20T12:08:05;25.20;93.30
53310;DHT22;39197;53.200;5.792;2023-07-20T12:10:30;25.60;93.50
53310;DHT22;39197;53.200;5.792;2023-07-20T12:13:03;25.70;92.70
53310;DHT22;39197;53.200;5.792;2023-07-20T12:15:29;25.90;92.10
53310;DHT22;39197;53.200;5.792;2023-07-20T12:17:57;26.40;92.00
53310;DHT22;39197;53.200;5.792;2023-07-20T12:20:33;26.60;91.20
53310;DHT22;39197;53.200;5.792;2023-07-20T12:23:10;26.10;90.50
53310;DHT22;39197;53.200;5.792;2023-07-20T12:25:46;26.60;91.20
53310;DHT22;39197;53.200;5.792;2023-07-20T12:28:14;26.60;90.10
53310;DHT22;39197;53.200;5.792;2023-07-20T12:30:42;26.70;90.40
53310;DHT22;39197;53.200;5.792;2023-07-20T12:33:08;26.60;90.30
53310;DHT22;39197;53.200;5.792;2023-07-20T12:35:34;26.80;89.30
53310;DHT22;39197;53.200;5.792;2023-07-20T12:38:00;26.20;90.10
53310;DHT22;39197;53.200;5.792;2023-07-20T12:40:26;26.40;88.80
53310;DHT22;39197;53.200;5.792;2023-07-20T12:42:52;25.80;88.20
53310;DHT22;39197;53.200;5.792;2023-07-20T12:45:17;25.30;86.60
53310;DHT22;39197;53.200;5.792;2023-07-20T12:47:43;25.40;86.20
53310;DHT22;39197;53.200;5.792;2023-07-20T12:50:15;24.90;86.20
53310;DHT22;39197;53.200;5.792;2023-07-20T12:52:41;25.70;86.90
53310;DHT22;39197;53.200;5.792;2023-07-20T12:55:07;25.50;87.30
53310;DHT22;39197;53.200;5.792;2023-07-20T12:57:34;25.80;85.90
53310;DHT22;39197;53.200;5.792;2023-07-20T13:00:01;25.50;87.50
53310;DHT22;39197;53.200;5.792;2023-07-20T13:02:29;25.00;89.40
53310;DHT22;39197;53.200;5.792;2023-07-20T13:04:55;25.20;89.60
53310;DHT22;39197;53.200;5.792;2023-07-20T13:07:30;25.00;90.50
53310;DHT22;39197;53.200;5.792;2023-07-20T13:09:57;24.70;89.50
53310;DHT22;39197;53.200;5.792;2023-07-20T13:12:24;25.30;88.50
53310;DHT22;39197;53.200;5.792;2023-07-20T13:14:50;24.90;87.40
53310;DHT22;39197;53.200;5.792;2023-07-20T13:17:16;25.30;87.50
53310;DHT22;39197;53.200;5.792;2023-07-20T13:19:41;25.40;85.60
53310;DHT22;39197;53.200;5.792;2023-07-20T13:22:07;25.20;86.30
53310;DHT22;39197;53.200;5.792;2023-07-20T13:24:33;25.50;88.70
53310;DHT22;39197;53.200;5.792;2023-07-20T13:26:58;25.40;89.30
53310;DHT22;39197;53.200;5.792;2023-07-20T13:29:24;25.80;88.30
53310;DHT22;39197;53.200;5.792;2023-07-20T13:31:50;25.40;88.80
53310;DHT22;39197;53.200;5.792;2023-07-20T13:34:16;25.30;85.00
53310;DHT22;39197;53.200;5.792;2023-07-20T13:36:42;25.70;84.30
53310;DHT22;39197;53.200;5.792;2023-07-20T13:39:08;25.50;85.70
53310;DHT22;39197;53.200;5.792;2023-07-20T13:41:34;25.70;87.90
53310;DHT22;39197;53.200;5.792;2023-07-20T13:44:00;25.70;88.90
53310;DHT22;39197;53.200;5.792;2023-07-20T13:46:25;25.50;89.30
53310;DHT22;39197;53.200;5.792;2023-07-20T13:48:51;25.40;89.70
53310;DHT22;39197;53.200;5.792;2023-07-20T13:51:17;25.80;87.90
53310;DHT22;39197;53.200;5.792;2023-07-20T13:53:46;25.90;87.50
53310;DHT22;39197;53.200;5.792;2023-07-20T13:56:11;26.00;86.20
53310;DHT22;39197;53.200;5.792;2023-07-20T13:58:37;25.30;87.80
53310;DHT22;39197;53.200;5.792;2023-07-20T14:01:03;25.50;89.00
53310;DHT22;39197;53.200;5.792;2023-07-20T14:03:28;25.40;88.50
53310;DHT22;39197;53.200;5.792;2023-07-20T14:05:54;25.30;88.30
53310;DHT22;39197;53.200;5.792;2023-07-20T14:08:20;24.90;89.10
53310;DHT22;39197;53.200;5.792;2023-07-20T14:10:46;25.30;88.10
53310;DHT22;39197;53.200;5.792;2023-07-20T14:13:12;23.70;89.50
53310;DHT22;39197;53.200;5.792;2023-07-20T14:15:38;24.50;90.50
53310;DHT22;39197;53.200;5.792;2023-07-20T14:18:04;24.60;90.70
53310;DHT22;39197;53.200;5.792;2023-07-20T14:20:30;24.90;89.80
53310;DHT22;39197;53.200;5.792;2023-07-20T14:22:56;24.40;90.40
53310;DHT22;39197;53.200;5.792;2023-07-20T14:25:21;24.30;89.50
53310;DHT22;39197;53.200;5.792;2023-07-20T14:27:47;24.60;89.90
53310;DHT22;39197;53.200;5.792;2023-07-20T14:30:13;24.90;90.80
53310;DHT22;39197;53.200;5.792;2023-07-20T14:32:40;24.50;91.00
53310;DHT22;39197;53.200;5.792;2023-07-20T14:35:06;25.30;90.70
53310;DHT22;39197;53.200;5.792;2023-07-20T14:37:32;23.90;92.00
53310;DHT22;39197;53.200;5.792;2023-07-20T14:39:59;24.60;92.00
53310;DHT22;39197;53.200;5.792;2023-07-20T14:42:24;24.90;91.40
53310;DHT22;39197;53.200;5.792;2023-07-20T14:44:50;24.90;91.80
53310;DHT22;39197;53.200;5.792;2023-07-20T14:47:15;24.50;91.40
53310;DHT22;39197;53.200;5.792;2023-07-20T14:49:41;23.60;92.10
53310;DHT22;39197;53.200;5.792;2023-07-20T14:52:07;23.60;92.40
53310;DHT22;39197;53.200;5.792;2023-07-20T14:54:33;24.00;92.40
53310;DHT22;39197;53.200;5.792;2023-07-20T14:56:58;23.70;92.20
53310;DHT22;39197;53.200;5.792;2023-07-20T14:59:24;24.00;91.90
53310;DHT22;39197;53.200;5.792;2023-07-20T15:01:50;24.10;92.40
53310;DHT22;39197;53.200;5.792;2023-07-20T15:04:16;24.10;92.70
53310;DHT22;39197;53.200;5.792;2023-07-20T15:06:42;24.00;92.40
53310;DHT22;39197;53.200;5.792;2023-07-20T15:09:08;24.10;92.10
53310;DHT22;39197;53.200;5.792;2023-07-20T15:11:35;23.50;92.90
53310;DHT22;39197;53.200;5.792;2023-07-20T15:14:01;23.70;92.90
53310;DHT22;39197;53.200;5.792;2023-07-20T15:16:28;23.80;93.20
53310;DHT22;39197;53.200;5.792;2023-07-20T15:18:54;23.90;92.40
53310;DHT22;39197;53.200;5.792;2023-07-20T15:21:19;23.80;92.90
53310;DHT22;39197;53.200;5.792;2023-07-20T15:23:45;23.80;93.40
53310;DHT22;39197;53.200;5.792;2023-07-20T15:26:11;23.60;93.40
53310;DHT22;39197;53.200;5.792;2023-07-20T15:28:38;23.30;93.90
53310;DHT22;39197;53.200;5.792;2023-07-20T15:31:04;23.20;94.20
53310;DHT22;39197;53.200;5.792;2023-07-20T15:33:31;23.60;93.80
53310;DHT22;39197;53.200;5.792;2023-07-20T15:35:56;23.60;94.40
53310;DHT22;39197;53.200;5.792;2023-07-20T15:38:22;23.60;94.30
53310;DHT22;39197;53.200;5.792;2023-07-20T15:40:48;23.10;94.50